createdAt,value
2019-05-01T00:04:41.712Z,93.20
2019-05-01T00:09:17.482Z,93.20
2019-05-01T00:13:53.294Z,93.40
2019-05-01T00:18:29.105Z,93.20
2019-05-01T00:23:06.753Z,93.20
2019-05-01T00:27:42.539Z,93.30
2019-05-01T00:32:18.326Z,93.00
2019-05-01T00:36:54.104Z,93.20
2019-05-01T00:41:29.873Z,93.50
2019-05-01T00:46:05.641Z,93.40
2019-05-01T00:50:41.428Z,93.00
2019-05-01T00:55:35.657Z,93.30
2019-05-01T01:00:48.441Z,93.60
2019-05-01T01:05:24.819Z,93.80
2019-05-01T01:10:01.076Z,93.30
2019-05-01T01:14:36.858Z,93.70
2019-05-01T01:19:12.721Z,93.50
2019-05-01T01:23:48.778Z,93.90
2019-05-01T01:28:26.365Z,94.10
2019-05-01T01:33:02.129Z,94.10
2019-05-01T01:37:38.130Z,93.40
2019-05-01T01:42:14.127Z,93.10
2019-05-01T01:46:51.580Z,93.50
2019-05-01T01:51:28.160Z,93.90
2019-05-01T01:56:03.972Z,94.10
2019-05-01T02:00:50.369Z,94.10
2019-05-01T02:05:31.256Z,94.40
2019-05-01T02:10:08.208Z,94.20
2019-05-01T02:14:44.048Z,94.50
2019-05-01T02:19:21.652Z,94.50
2019-05-01T02:23:57.473Z,94.40
2019-05-01T02:28:46.055Z,94.20
2019-05-01T02:33:23.847Z,94.10
2019-05-01T02:38:02.015Z,94.00
2019-05-01T02:42:40.634Z,93.80
2019-05-01T02:47:23.370Z,93.90
2019-05-01T02:51:59.894Z,93.80
2019-05-01T02:56:49.005Z,93.90
2019-05-01T03:01:26.211Z,94.40
2019-05-01T03:06:02.308Z,94.60
2019-05-01T03:10:38.113Z,94.20
2019-05-01T03:15:16.218Z,94.10
2019-05-01T03:19:59.213Z,94.20
2019-05-01T03:24:35.298Z,94.00
2019-05-01T03:29:11.098Z,93.70
2019-05-01T03:33:47.278Z,93.60
2019-05-01T03:38:23.082Z,93.50
2019-05-01T03:42:59.454Z,93.50
2019-05-01T03:47:35.639Z,93.30
2019-05-01T03:52:11.775Z,93.40
